Time;durP1;ratioP1;P1;durP2;ratioP2;P2;SDS_P1;SDS_P2;PMS_P1;PMS_P2;Temp;Humidity;BMP_temperature;BMP_pressure;BME280_temperature;BME280_humidity;BME280_pressure;Samples;Min_cycle;Max_cycle;Signal;HPM_P1;HPM_P2
2022/07/16 00:01:25;;;;;;;8.35;3.22;;;;;;;12.51;59.06;100620.32;2088557;84;29266;-60
2022/07/16 00:04:27;;;;;;;9.25;3.65;;;;;;;12.50;58.92;100615.89;2086293;85;31490;-63
2022/07/16 00:07:28;;;;;;;7.72;3.92;;;;;;;12.49;58.82;100615.05;2085883;85;33388;-71
2022/07/16 00:10:30;;;;;;;8.60;3.22;;;;;;;12.50;59.00;100620.81;2085835;85;29680;-73
2022/07/16 00:13:31;;;;;;;9.43;3.90;;;;;;;12.50;58.84;100618.12;2086313;85;27726;-61
2022/07/16 00:16:33;;;;;;;9.55;4.58;;;;;;;12.50;58.92;100619.47;2085603;85;29101;-61
2022/07/16 00:19:34;;;;;;;8.90;4.05;;;;;;;12.50;58.94;100615.44;2085815;85;31388;-60
2022/07/16 00:22:36;;;;;;;9.10;4.28;;;;;;;12.49;59.04;100608.81;2086246;85;33273;-66
2022/07/16 00:25:37;;;;;;;12.33;4.75;;;;;;;12.46;59.04;100610.71;2086360;84;29376;-60
2022/07/16 00:28:39;;;;;;;9.13;4.45;;;;;;;12.44;59.06;100602.31;2086859;84;28356;-62
2022/07/16 00:31:42;;;;;;;5.72;3.62;;;;;;;12.43;59.12;100607.29;2086408;84;29897;-61
2022/07/16 00:34:44;;;;;;;9.23;4.42;;;;;;;12.43;59.18;100601.92;2085636;85;31978;-61
2022/07/16 00:37:46;;;;;;;7.20;4.40;;;;;;;12.41;59.09;100603.84;2085586;85;33737;-60
2022/07/16 00:40:47;;;;;;;11.30;4.62;;;;;;;12.40;59.29;100601.61;2090121;83;29705;-61
2022/07/16 00:44:06;;;;;;;12.50;4.15;;;;;;;12.39;59.20;100604.39;2108438;84;27658;-60
2022/07/16 00:47:08;;;;;;;8.68;4.55;;;;;;;12.37;59.46;100600.92;2108385;84;29052;-66
2022/07/16 00:50:09;;;;;;;14.50;4.72;;;;;;;12.35;59.38;100595.60;2107801;84;31118;-61
2022/07/16 00:53:11;;;;;;;12.90;6.95;;;;;;;12.34;59.60;100601.92;2104714;84;33369;-60
2022/07/16 00:56:15;;;;;;;12.03;5.95;;;;;;;12.34;59.56;100600.58;2104361;84;28477;-60
2022/07/16 00:59:18;;;;;;;9.28;5.58;;;;;;;12.33;59.70;100603.36;2104513;84;27615;-62
2022/07/16 01:02:20;;;;;;;8.70;4.55;;;;;;;12.30;59.70;100603.91;2107602;84;29058;-68
2022/07/16 01:05:22;;;;;;;9.50;3.92;;;;;;;12.28;59.56;100600.44;2108213;84;31214;-67
2022/07/16 01:08:24;;;;;;;9.88;3.90;;;;;;;12.26;59.61;100605.50;2108354;84;33088;-62
2022/07/16 01:11:26;;;;;;;10.05;3.27;;;;;;;12.23;59.47;100598.48;2106238;84;30001;-65
2022/07/16 01:14:28;;;;;;;12.35;4.42;;;;;;;12.23;59.70;100593.56;2104725;84;27682;-65
2022/07/16 01:17:31;;;;;;;8.70;3.70;;;;;;;12.23;59.90;100594.45;2104496;84;29315;-60
2022/07/16 01:20:33;;;;;;;11.28;4.03;;;;;;;12.23;59.78;100594.45;2105154;84;31183;-73
2022/07/16 01:23:35;;;;;;;9.83;4.03;;;;;;;12.25;59.95;100590.33;2108021;84;34222;-71
2022/07/16 01:26:39;;;;;;;9.18;4.00;;;;;;;12.24;60.09;100589.48;2108504;84;29678;-62
2022/07/16 01:29:41;;;;;;;11.30;4.50;;;;;;;12.24;60.18;100583.22;2108561;84;28276;-78
2022/07/16 01:32:42;;;;;;;13.35;5.10;;;;;;;12.24;60.37;100584.11;2104399;84;29876;-60
2022/07/16 01:35:44;;;;;;;13.00;4.17;;;;;;;12.24;60.25;100573.36;2104341;84;31631;-59
2022/07/16 01:38:45;;;;;;;7.42;3.40;;;;;;;12.23;60.36;100574.30;2104668;84;32438;-64
2022/07/16 01:41:57;;;;;;;9.33;3.42;;;;;;;12.23;60.54;100570.28;2106458;84;30518;-67
2022/07/16 01:45:00;;;;;;;11.93;3.33;;;;;;;12.23;60.47;100565.36;2108395;84;27652;-63
2022/07/16 01:48:02;;;;;;;28.65;5.00;;;;;;;12.22;60.56;100563.16;2108416;83;28661;-68
2022/07/16 01:51:04;;;;;;;9.85;3.58;;;;;;;12.22;60.82;100568.54;2106572;84;31753;-65
2022/07/16 01:54:06;;;;;;;11.18;4.05;;;;;;;12.20;60.63;100571.77;2104675;84;32964;-69
2022/07/16 01:57:07;;;;;;;9.75;3.98;;;;;;;12.19;60.89;100572.72;2104356;84;30524;-67
2022/07/16 02:00:10;;;;;;;11.93;4.08;;;;;;;12.19;61.00;100566.00;2104630;84;27695;-67
2022/07/16 02:03:13;;;;;;;13.32;4.30;;;;;;;12.20;61.06;100564.17;2108048;84;29129;-65
2022/07/16 02:06:15;;;;;;;8.88;3.92;;;;;;;12.20;61.08;100561.48;2108360;84;31076;-72
2022/07/16 02:09:17;;;;;;;12.20;4.42;;;;;;;12.19;61.09;100556.61;2108000;84;33009;-68
2022/07/16 02:12:19;;;;;;;10.58;3.87;;;;;;;12.19;61.18;100553.03;2108054;84;30106;-65
2022/07/16 02:15:21;;;;;;;9.45;3.83;;;;;;;12.19;61.21;100549.00;2108455;84;27652;-71
2022/07/16 02:18:22;;;;;;;7.53;3.75;;;;;;;12.16;61.26;100547.36;2107598;84;28991;-69
2022/07/16 02:21:23;;;;;;;6.50;3.62;;;;;;;12.16;61.27;100551.39;2104705;84;32173;-74
2022/07/16 02:24:26;;;;;;;12.35;3.58;;;;;;;12.14;61.22;100554.17;2104574;84;32823;-65
2022/07/16 02:27:28;;;;;;;10.50;4.03;;;;;;;12.14;61.37;100551.94;2104579;84;30131;-67
2022/07/16 02:30:29;;;;;;;9.30;3.80;;;;;;;12.13;61.39;100547.05;2108206;84;27675;-74
2022/07/16 02:33:30;;;;;;;10.60;3.80;;;;;;;12.13;61.42;100544.83;2108407;84;29837;-65
2022/07/16 02:36:32;;;;;;;7.92;3.60;;;;;;;12.13;61.63;100537.66;2108527;84;31423;-73
2022/07/16 02:39:33;;;;;;;8.68;3.15;;;;;;;12.12;61.67;100539.95;2106339;84;33050;-74
2022/07/16 02:42:34;;;;;;;9.60;4.42;;;;;;;12.12;61.74;100536.38;2106588;84;29441;-66
2022/07/16 02:45:38;;;;;;;6.17;3.20;;;;;;;12.12;61.85;100536.38;2108684;84;27747;-67
2022/07/16 02:48:40;;;;;;;13.05;3.70;;;;;;;12.12;61.95;100540.41;2110728;84;29072;-66
2022/07/16 02:51:41;;;;;;;11.45;4.15;;;;;;;12.11;61.97;100535.52;2078119;85;31038;-64
2022/07/16 02:54:43;;;;;;;12.45;4.12;;;;;;;12.11;61.99;100529.27;2115342;84;33647;-62
2022/07/16 02:57:45;;;;;;;6.67;2.72;;;;;;;12.11;61.95;100529.27;2115222;84;30167;-59
2022/07/16 03:00:47;;;;;;;10.38;3.65;;;;;;;12.10;62.09;100522.16;2108225;84;27579;-60
2022/07/16 03:03:49;;;;;;;8.28;4.12;;;;;;;12.11;61.97;100529.27;2107917;84;29985;-61
2022/07/16 03:06:50;;;;;;;6.08;3.60;;;;;;;12.11;62.11;100527.92;2108061;84;31514;-63
2022/07/16 03:09:51;;;;;;;10.55;3.35;;;;;;;12.12;62.27;100529.66;2112983;84;33862;-60
2022/07/16 03:12:54;;;;;;;10.15;3.65;;;;;;;12.13;62.50;100528.72;2115237;84;29991;-63
2022/07/16 03:15:56;;;;;;;8.08;3.12;;;;;;;12.14;62.51;100523.28;2115411;84;27710;-67
2022/07/16 03:18:58;;;;;;;6.72;2.80;;;;;;;12.18;62.62;100521.75;2115592;84;28724;-60
2022/07/16 03:21:59;;;;;;;5.10;2.77;;;;;;;12.18;62.69;100525.32;2115107;84;32127;-60
2022/07/16 03:25:01;;;;;;;12.78;3.30;;;;;;;12.21;62.85;100518.91;2091043;84;33107;-60
2022/07/16 03:28:03;;;;;;;7.53;3.55;;;;;;;12.22;62.82;100524.67;2090752;85;30582;-66
2022/07/16 03:31:05;;;;;;;12.20;4.10;;;;;;;12.25;62.86;100517.80;2056758;86;27701;-59
2022/07/16 03:34:06;;;;;;;9.43;4.00;;;;;;;12.29;62.81;100516.20;2056809;86;29058;-68
2022/07/16 03:37:07;;;;;;;11.97;3.62;;;;;;;12.34;62.85;100517.30;2056637;86;30990;-59
2022/07/16 03:40:10;;;;;;;7.03;3.27;;;;;;;12.38;62.92;100522.05;2074477;85;32053;-60
2022/07/16 03:43:12;;;;;;;8.45;3.75;;;;;;;12.42;62.89;100521.80;2081499;84;29893;-60
2022/07/16 03:46:13;;;;;;;9.50;3.80;;;;;;;12.45;62.94;100516.73;2081803;85;27692;-60
2022/07/16 03:49:14;;;;;;;7.12;3.70;;;;;;;12.51;62.95;100524.92;2085269;85;29102;-61
2022/07/16 03:52:16;;;;;;;8.23;3.62;;;;;;;12.56;63.10;100521.52;2090685;84;31059;-64
2022/07/16 03:55:19;;;;;;;7.50;3.58;;;;;;;12.62;63.34;100513.13;2091025;84;32975;-62
2022/07/16 03:58:23;;;;;;;8.38;3.37;;;;;;;12.70;63.59;100518.94;2090192;84;30281;-60
2022/07/16 04:01:25;;;;;;;6.95;3.70;;;;;;;12.76;63.60;100513.23;2108090;84;27604;-61
2022/07/16 04:04:26;;;;;;;8.30;4.47;;;;;;;12.84;63.66;100522.68;2107915;84;29886;-64
2022/07/16 04:07:28;;;;;;;6.92;3.55;;;;;;;12.91;63.57;100526.28;2108718;84;31942;-61
2022/07/16 04:10:29;;;;;;;12.05;3.37;;;;;;;13.01;63.71;100532.51;2113152;84;33035;-60
2022/07/16 04:13:31;;;;;;;10.30;3.92;;;;;;;13.08;63.45;100527.16;2115764;84;29360;-60
2022/07/16 04:16:32;;;;;;;6.85;3.30;;;;;;;13.16;63.46;100524.03;2115183;84;27640;-61
2022/07/16 04:19:34;;;;;;;8.88;3.12;;;;;;;13.25;63.52;100526.67;2115586;84;28170;-67
2022/07/16 04:22:35;;;;;;;11.33;2.72;;;;;;;13.35;63.55;100523.87;2115220;84;31443;-68
2022/07/16 04:25:37;;;;;;;9.98;3.22;;;;;;;13.45;63.53;100521.05;2091087;85;33107;-69
2022/07/16 04:28:39;;;;;;;9.18;3.50;;;;;;;13.56;63.52;100511.50;2082651;85;29854;-67
2022/07/16 04:31:41;;;;;;;9.93;2.98;;;;;;;13.67;63.05;100519.30;2061736;85;27728;-61
2022/07/16 04:34:44;;;;;;;8.93;3.33;;;;;;;13.79;62.91;100515.52;2081369;85;29295;-60
2022/07/16 04:37:45;;;;;;;7.70;3.10;;;;;;;13.92;62.89;100509.78;2112013;84;31200;-68
2022/07/16 04:40:47;;;;;;;4.33;2.47;;;;;;;14.06;62.81;100505.37;2077780;85;33027;-59
2022/07/16 04:43:48;;;;;;;8.75;3.42;;;;;;;14.22;62.87;100504.81;2093251;84;29495;-59
2022/07/16 04:46:50;;;;;;;5.95;2.83;;;;;;;14.38;62.65;100497.13;2075563;85;27694;-63
2022/07/16 04:49:51;;;;;;;7.10;3.27;;;;;;;14.54;62.49;100499.23;2053480;86;28777;-71
2022/07/16 04:52:53;;;;;;;6.80;3.05;;;;;;;14.72;62.23;100509.85;2067467;86;31199;-65
2022/07/16 04:55:57;;;;;;;7.50;3.67;;;;;;;14.91;61.87;100501.93;2067556;86;32923;-63
2022/07/16 04:59:00;;;;;;;10.93;3.85;;;;;;;15.13;61.85;100501.39;2054914;86;32304;-62
2022/07/16 05:05:33;;;;;;;13.10;5.28;;;;;;;15.62;61.15;100495.42;2053748;86;29700;-62
2022/07/16 05:08:35;;;;;;;12.58;7.80;;;;;;;15.80;60.58;100479.78;2064323;86;31925;-69
2022/07/16 05:11:37;;;;;;;11.65;6.22;;;;;;;16.18;60.11;100497.05;2067292;86;33814;-69
2022/07/16 05:14:39;;;;;;;12.90;5.78;;;;;;;16.31;59.72;100470.50;2067541;86;29758;-61
2022/07/16 05:17:41;;;;;;;10.53;4.00;;;;;;;16.69;59.30;100497.49;2053681;86;27703;-62
2022/07/16 05:20:43;;;;;;;11.12;4.05;;;;;;;16.94;58.98;100496.19;2054316;86;29320;-61
2022/07/16 05:23:45;;;;;;;7.80;3.05;;;;;;;17.21;58.53;100496.02;2054950;85;31062;-60
2022/07/16 05:26:47;;;;;;;6.12;2.70;;;;;;;17.51;58.11;100487.92;2067314;86;32945;-64
2022/07/16 05:29:49;;;;;;;7.75;2.60;;;;;;;17.86;57.75;100488.41;2067409;86;29973;-60
2022/07/16 05:32:51;;;;;;;9.93;3.77;;;;;;;18.35;57.45;100480.15;2061996;86;27684;-60
2022/07/16 05:35:58;;;;;;;5.80;2.83;;;;;;;19.17;57.22;100477.64;2053956;86;29440;-63
2022/07/16 05:39:02;;;;;;;11.65;3.08;;;;;;;19.94;56.00;100478.42;2053452;86;31425;-61
2022/07/16 05:42:10;;;;;;;6.72;2.55;;;;;;;20.25;54.90;100475.77;2057159;84;33383;-63
2022/07/16 05:45:11;;;;;;;3.98;2.37;;;;;;;20.46;53.96;100470.77;2103705;84;30481;-61
2022/07/16 05:48:13;;;;;;;5.75;2.62;;;;;;;20.65;53.35;100470.00;2103460;84;27595;-62
2022/07/16 05:51:14;;;;;;;4.70;2.27;;;;;;;20.78;52.58;100471.13;2103497;84;29283;-60
2022/07/16 05:54:15;;;;;;;5.97;2.27;;;;;;;20.85;51.89;100473.67;2103634;84;31376;-60
2022/07/16 05:57:17;;;;;;;4.42;2.20;;;;;;;20.84;51.49;100477.91;2103373;84;33163;-61
2022/07/16 06:00:19;;;;;;;6.00;2.05;;;;;;;20.76;51.00;100476.73;2103534;84;30486;-66
2022/07/16 06:03:20;;;;;;;4.37;2.10;;;;;;;20.68;50.29;100471.09;2105395;84;27661;-63
2022/07/16 06:06:22;;;;;;;2.70;1.75;;;;;;;20.63;50.22;100467.91;2102127;84;29053;-72
2022/07/16 06:09:24;;;;;;;3.45;1.70;;;;;;;20.69;50.27;100465.98;2089644;85;32189;-75
2022/07/16 06:12:25;;;;;;;3.45;1.90;;;;;;;20.83;49.78;100464.78;2101838;84;33840;-60
2022/07/16 06:15:27;;;;;;;5.90;1.95;;;;;;;21.03;49.43;100465.67;2089652;85;30506;-62
2022/07/16 06:18:28;;;;;;;5.05;1.90;;;;;;;21.32;48.92;100466.72;2090136;84;27684;-65
2022/07/16 06:21:29;;;;;;;3.98;2.00;;;;;;;22.12;49.02;100459.73;2089652;84;28692;-60
2022/07/16 06:24:31;;;;;;;8.35;1.92;;;;;;;22.74;47.99;100454.64;2089242;84;31489;-59
2022/07/16 06:27:32;;;;;;;4.42;1.75;;;;;;;23.33;47.10;100452.06;2089113;85;33335;-60
2022/07/16 06:30:34;;;;;;;2.35;1.90;;;;;;;23.76;46.21;100449.01;2089156;85;29451;-61
2022/07/16 06:33:35;;;;;;;4.05;1.57;;;;;;;24.06;45.78;100444.64;2089714;85;27648;-61
2022/07/16 06:36:36;;;;;;;7.33;1.72;;;;;;;24.36;45.40;100449.27;2089953;85;28689;-62
2022/07/16 06:39:40;;;;;;;2.40;1.57;;;;;;;24.61;44.42;100435.67;2102163;84;30479;-62
2022/07/16 06:42:41;;;;;;;4.42;1.55;;;;;;;24.75;43.93;100439.17;2089256;84;34247;-61
2022/07/16 06:45:43;;;;;;;2.75;1.32;;;;;;;24.96;43.69;100437.38;2087358;85;29268;-61
2022/07/16 06:48:44;;;;;;;4.70;1.67;;;;;;;25.35;43.34;100437.28;2090185;85;27642;-61
2022/07/16 06:51:46;;;;;;;2.60;1.52;;;;;;;25.66;42.36;100437.13;2089598;85;29112;-61
2022/07/16 06:54:47;;;;;;;2.17;1.07;;;;;;;25.77;41.57;100435.43;2090607;85;32189;-60
2022/07/16 06:57:48;;;;;;;2.87;1.30;;;;;;;25.84;41.54;100428.73;2106361;84;33872;-61
2022/07/16 07:00:49;;;;;;;5.15;1.35;;;;;;;26.02;41.34;100417.03;2088103;85;30408;-60
2022/07/16 07:03:51;;;;;;;4.83;1.35;;;;;;;26.17;40.58;100421.30;2105903;84;27672;-62
2022/07/16 07:06:52;;;;;;;1.98;1.20;;;;;;;26.59;40.35;100419.80;2087908;85;29872;-61
2022/07/16 07:09:53;;;;;;;3.10;1.12;;;;;;;27.14;39.87;100410.56;2081962;85;30963;-67
2022/07/16 07:12:54;;;;;;;2.40;1.30;;;;;;;27.80;39.45;100412.50;2080909;85;33433;-65
2022/07/16 07:15:57;;;;;;;4.03;0.72;;;;;;;28.54;38.70;100409.47;2054267;86;30228;-69
2022/07/16 07:18:59;;;;;;;2.90;1.32;;;;;;;28.87;37.06;100397.48;2089876;85;27732;-69
2022/07/16 07:22:00;;;;;;;4.05;1.52;;;;;;;28.93;36.11;100397.22;2092681;84;29475;-67
2022/07/16 07:25:02;;;;;;;5.12;1.45;;;;;;;29.01;36.26;100395.73;2085668;85;31261;-67
2022/07/16 07:28:04;;;;;;;3.37;1.30;;;;;;;29.21;35.42;100394.55;2086512;85;32925;-67
2022/07/16 07:31:05;;;;;;;2.60;0.90;;;;;;;29.40;35.22;100404.64;2089256;85;29298;-70
2022/07/16 07:34:07;;;;;;;3.72;1.40;;;;;;;29.54;34.87;100387.65;2067598;84;27722;-68
2022/07/16 07:37:09;;;;;;;2.90;1.35;;;;;;;29.61;34.25;100389.95;2089952;85;28694;-67
2022/07/16 07:40:12;;;;;;;4.75;1.20;;;;;;;29.51;33.63;100389.45;2090054;84;32114;-66
2022/07/16 07:43:14;;;;;;;1.50;0.90;;;;;;;29.29;33.00;100394.95;2105080;83;32995;-66
2022/07/16 07:46:15;;;;;;;2.42;1.07;;;;;;;29.08;33.05;100388.91;2090043;85;29446;-67
2022/07/16 07:49:17;;;;;;;1.67;1.05;;;;;;;29.08;32.87;100393.05;2089742;84;27672;-67
2022/07/16 07:52:18;;;;;;;5.40;1.07;;;;;;;29.00;32.44;100385.75;2087589;85;28634;-65
2022/07/16 07:55:20;;;;;;;1.55;1.02;;;;;;;28.92;32.14;100385.35;2088715;85;31011;-69
2022/07/16 07:58:22;;;;;;;2.05;0.93;;;;;;;28.75;32.19;100385.25;2089196;85;32934;-66
2022/07/16 08:01:23;;;;;;;4.75;1.00;;;;;;;28.58;32.00;100382.70;2090013;84;29320;-65
2022/07/16 08:04:24;;;;;;;2.00;0.95;;;;;;;28.40;31.75;100378.95;2089244;85;27759;-68
2022/07/16 08:07:25;;;;;;;3.22;0.93;;;;;;;28.27;31.88;100375.52;2089877;85;28619;-69
2022/07/16 08:10:28;;;;;;;3.30;1.12;;;;;;;28.21;32.10;100372.13;2089103;85;46316;-65
2022/07/16 08:13:29;;;;;;;1.07;0.90;;;;;;;28.14;31.42;100372.05;2089398;85;33593;-65
2022/07/16 08:16:30;;;;;;;3.50;0.90;;;;;;;28.14;31.70;100367.04;2088935;85;29377;-65
2022/07/16 08:19:32;;;;;;;0.93;0.75;;;;;;;28.37;31.58;100367.46;2090177;85;27739;-65
2022/07/16 08:22:34;;;;;;;3.70;0.72;;;;;;;28.52;31.33;100369.67;2064839;85;28667;-65
2022/07/16 08:25:44;;;;;;;2.08;0.80;;;;;;;28.62;31.36;100359.22;2090058;84;31030;-66
2022/07/16 08:28:46;;;;;;;1.45;0.72;;;;;;;28.68;31.09;100356.20;2055672;86;32955;-65
2022/07/16 08:31:47;;;;;;;2.25;1.25;;;;;;;28.69;30.79;100365.31;2030862;86;30108;-65
2022/07/16 08:34:51;;;;;;;2.87;1.15;;;;;;;28.66;30.76;100356.38;2055677;85;27665;-65
2022/07/16 08:37:56;;;;;;;1.85;0.80;;;;;;;28.68;30.44;100365.85;2080855;85;28703;-64
2022/07/16 08:41:00;;;;;;;3.15;0.65;;;;;;;28.70;30.37;100359.63;2089397;85;31313;-64
2022/07/16 08:44:04;;;;;;;3.42;0.90;;;;;;;28.66;29.97;100356.38;2088734;84;33919;-64
2022/07/16 08:47:09;;;;;;;0.55;0.55;;;;;;;28.75;29.89;100363.20;2041651;85;29365;-64
2022/07/16 08:50:14;;;;;;;3.75;0.70;;;;;;;28.76;30.17;100355.26;2090035;84;27645;-65
2022/07/16 08:53:16;;;;;;;7.83;0.75;;;;;;;29.08;29.96;100360.78;2118111;83;29480;-65
2022/07/16 08:56:18;;;;;;;1.90;0.72;;;;;;;29.09;29.46;100353.38;2110980;84;31122;-66
2022/07/16 08:59:19;;;;;;;1.57;0.82;;;;;;;29.07;29.80;100357.69;2111027;84;33780;-66
2022/07/16 09:02:21;;;;;;;2.17;0.93;;;;;;;29.13;29.48;100350.53;2110965;83;30254;-65
2022/07/16 09:05:24;;;;;;;1.85;0.80;;;;;;;29.14;29.63;100353.61;2107801;84;27634;-66
2022/07/16 09:08:26;;;;;;;1.67;0.77;;;;;;;29.18;29.38;100350.80;2107389;84;29571;-66
2022/07/16 09:11:34;;;;;;;1.82;1.15;;;;;;;29.54;29.32;100349.00;2107367;84;31007;-66
2022/07/16 09:14:37;;;;;;;2.05;0.82;;;;;;;30.10;29.41;100340.38;2109567;84;33776;-65
2022/07/16 09:17:39;;;;;;;2.67;0.90;;;;;;;30.38;28.99;100343.07;2110815;84;30177;-65
2022/07/16 09:20:48;;;;;;;30.65;4.55;;;;;;;30.47;28.26;100327.16;2117957;84;27654;-65
2022/07/16 09:23:50;;;;;;;8.33;1.85;;;;;;;30.63;28.43;100319.58;2109656;84;28615;-64
2022/07/16 09:26:57;;;;;;;2.65;0.90;;;;;;;30.85;28.42;100325.28;2107497;84;31866;-64
2022/07/16 09:30:03;;;;;;;3.40;1.17;;;;;;;30.90;28.12;100320.50;2100462;84;32973;-66
2022/07/16 09:33:21;;;;;;;1.87;0.82;;;;;;;30.85;27.74;100310.59;2107287;84;30344;-65
2022/07/16 09:36:23;;;;;;;9.95;2.10;;;;;;;30.75;27.68;100310.98;2118166;83;27691;-64
2022/07/16 09:39:26;;;;;;;1.55;0.82;;;;;;;30.53;27.70;100300.05;2110641;84;29365;-64
2022/07/16 09:42:39;;;;;;;3.12;0.90;;;;;;;30.33;27.64;100312.42;2111023;84;30997;-65
2022/07/16 09:45:43;;;;;;;2.27;1.10;;;;;;;30.06;27.46;100314.21;2107829;83;32965;-64
2022/07/16 09:48:46;;;;;;;1.47;0.95;;;;;;;29.80;27.39;100313.83;2086621;84;29367;-66
2022/07/16 09:51:47;;;;;;;2.98;0.93;;;;;;;29.64;27.32;100320.53;2108435;84;27738;-65
2022/07/16 09:54:56;;;;;;;64.20;4.72;;;;;;;29.47;27.61;100317.20;2112509;84;28606;-65
2022/07/16 09:58:02;;;;;;;2.58;0.98;;;;;;;29.48;27.68;100314.77;2115077;84;31077;-65
2022/07/16 10:01:05;;;;;;;1.82;1.02;;;;;;;29.19;27.10;100316.64;2115379;84;33054;-64
2022/07/16 10:04:07;;;;;;;5.27;1.63;;;;;;;28.89;27.16;100312.66;2115370;84;29557;-65
2022/07/16 10:07:09;;;;;;;5.30;1.65;;;;;;;28.59;27.35;100315.49;2115281;84;27608;-67
2022/07/16 10:10:12;;;;;;;6.97;1.05;;;;;;;28.40;27.43;100318.86;2115011;84;28627;-66
2022/07/16 10:13:15;;;;;;;2.17;0.98;;;;;;;28.12;27.46;100313.53;2090912;85;31668;-64
2022/07/16 10:16:41;;;;;;;1.87;0.80;;;;;;;27.69;27.29;100311.41;2091049;84;33778;-64
2022/07/16 10:19:42;;;;;;;9.63;1.45;;;;;;;27.31;27.55;100318.28;2086475;84;29224;-65
2022/07/16 10:22:47;;;;;;;6.42;0.98;;;;;;;27.05;27.89;100308.55;2081694;85;27826;-64
2022/07/16 10:25:58;;;;;;;4.42;1.07;;;;;;;26.98;28.08;100303.44;2096117;84;28643;-65
2022/07/16 10:29:02;;;;;;;2.12;0.78;;;;;;;26.94;28.35;100303.50;2096057;84;30841;-65
2022/07/16 10:35:08;;;;;;;4.28;1.20;;;;;;;26.95;28.69;100302.46;2003503;88;30292;-64
2022/07/16 10:38:21;;;;;;;5.42;1.12;;;;;;;27.02;28.96;100296.54;1993395;88;27680;-65
2022/07/16 10:41:24;;;;;;;1.55;0.90;;;;;;;27.06;29.02;100295.64;2018084;88;28648;-65
2022/07/16 10:44:48;;;;;;;2.37;1.10;;;;;;;27.15;29.22;100289.05;1997528;87;31166;-67
2022/07/16 10:47:50;;;;;;;8.15;1.00;;;;;;;27.19;29.21;100295.02;2025244;87;34204;-66
2022/07/16 10:51:17;;;;;;;2.00;1.00;;;;;;;27.13;29.31;100298.88;2025641;87;29698;-65
2022/07/16 10:54:19;;;;;;;3.80;1.17;;;;;;;26.91;29.43;100300.58;1949442;90;27796;-66
2022/07/16 10:57:34;;;;;;;3.42;1.42;;;;;;;26.50;29.51;100304.42;1942609;91;29526;-65
2022/07/16 11:00:35;;;;;;;5.75;1.70;;;;;;;26.11;29.79;100314.95;1942715;91;31859;-67
2022/07/16 11:03:37;;;;;;;2.27;1.17;;;;;;;25.66;30.02;100316.40;1942670;90;33026;-64
2022/07/16 11:06:40;;;;;;;3.27;1.10;;;;;;;25.23;30.41;100335.28;1942631;91;29325;-68
2022/07/16 11:09:46;;;;;;;8.17;1.40;;;;;;;24.80;31.23;100347.75;1942996;91;27799;-68
2022/07/16 11:12:47;;;;;;;2.52;1.02;;;;;;;24.31;32.54;100373.59;1992944;87;28720;-66
2022/07/16 11:15:53;;;;;;;4.80;1.60;;;;;;;23.85;34.55;100384.76;2034228;87;31018;-68
2022/07/16 11:18:54;;;;;;;6.28;1.62;;;;;;;23.44;35.94;100387.56;2034184;87;33287;-67
2022/07/16 11:22:01;;;;;;;3.70;1.35;;;;;;;23.11;37.58;100404.13;2034363;87;30372;-64
2022/07/16 11:25:06;;;;;;;6.22;1.45;;;;;;;22.93;38.87;100410.44;2034314;87;27818;-66
2022/07/16 11:28:07;;;;;;;3.35;1.40;;;;;;;22.73;39.69;100413.80;2034360;87;28645;-64
2022/07/16 11:31:09;;;;;;;4.30;1.90;;;;;;;22.62;40.73;100421.70;2086529;84;31083;-65
2022/07/16 11:34:11;;;;;;;4.20;1.70;;;;;;;22.53;41.51;100417.16;2105329;84;32943;-65
2022/07/16 11:37:20;;;;;;;1.12;1.02;;;;;;;22.47;41.98;100410.44;2090036;85;29432;-65
2022/07/16 11:40:41;;;;;;;2.77;1.37;;;;;;;22.57;42.59;100405.77;2089233;85;27699;-71
2022/07/16 11:43:43;;;;;;;2.52;1.35;;;;;;;22.79;43.41;100398.67;2089757;85;29578;-68
2022/07/16 11:46:56;;;;;;;2.15;1.10;;;;;;;22.95;43.07;100398.00;2087449;84;31171;-68
2022/07/16 11:49:58;;;;;;;1.87;1.07;;;;;;;23.03;42.98;100399.44;2087554;85;32590;-70
2022/07/16 11:53:00;;;;;;;2.12;1.50;;;;;;;23.19;43.30;100391.92;2087786;85;30283;-67
2022/07/16 11:56:02;;;;;;;2.25;1.42;;;;;;;23.28;43.22;100395.63;2087394;85;28449;-75
2022/07/16 11:59:27;;;;;;;2.83;1.37;;;;;;;23.46;43.51;100392.86;2054940;86;28686;-71
2022/07/16 12:02:35;;;;;;;2.50;1.12;;;;;;;23.71;43.75;100385.70;2087513;84;31932;-67
2022/07/16 12:05:37;;;;;;;2.80;1.22;;;;;;;24.07;43.68;100384.25;2103467;84;33426;-70
2022/07/16 12:08:56;;;;;;;2.70;1.00;;;;;;;24.33;42.95;100390.19;2105709;84;29410;-67
2022/07/16 12:12:05;;;;;;;2.75;1.47;;;;;;;24.54;42.68;100391.65;2105922;84;27737;-66
2022/07/16 12:15:25;;;;;;;2.08;1.32;;;;;;;24.59;42.09;100379.70;2087747;85;29500;-66
2022/07/16 12:18:14;;;;;;;1.65;1.00;;;;;;;24.73;41.96;100383.19;2080104;85;31094;-68
2022/07/16 12:21:29;;;;;;;2.77;1.32;;;;;;;24.89;41.88;100374.66;2068497;85;32961;-67
2022/07/16 12:24:33;;;;;;;1.72;1.37;;;;;;;25.07;41.44;100377.24;2091557;84;29246;-65
2022/07/16 12:27:50;;;;;;;3.50;0.90;;;;;;;24.93;40.74;100385.64;2081454;84;27890;-65
2022/07/16 12:30:57;;;;;;;2.58;1.17;;;;;;;24.79;40.79;100393.98;2080540;85;29520;-72
2022/07/16 12:34:02;;;;;;;3.62;1.52;;;;;;;24.53;40.50;100401.77;2083810;84;31629;-69
2022/07/16 12:37:15;;;;;;;2.12;1.20;;;;;;;24.28;40.67;100399.42;2073940;84;33058;-66
2022/07/16 12:40:17;;;;;;;1.72;1.40;;;;;;;23.99;40.78;100403.37;2084014;84;29324;-66
2022/07/16 12:43:19;;;;;;;2.55;0.90;;;;;;;23.62;41.44;100424.97;2082673;84;27828;-67
2022/07/16 12:46:25;;;;;;;9.85;2.42;;;;;;;22.99;42.13;100458.16;2085575;84;28654;-65
2022/07/16 12:49:27;;;;;;;7.10;1.10;;;;;;;22.26;44.34;100450.19;2087235;84;31080;-70
2022/07/16 12:52:29;;;;;;;3.83;1.10;;;;;;;21.45;44.69;100470.02;2125776;83;33549;-66
2022/07/16 12:58:51;;;;;;;1.30;0.70;;;;;;;20.48;47.04;100449.72;2127848;83;27694;-71
2022/07/16 13:01:56;;;;;;;1.72;0.80;;;;;;;20.20;47.79;100454.91;2126741;83;28624;-68
2022/07/16 13:05:09;;;;;;;1.12;0.90;;;;;;;19.98;48.84;100462.72;2083659;83;30629;-69
2022/07/16 13:08:10;;;;;;;1.67;1.12;;;;;;;19.72;49.45;100462.59;2097729;83;33030;-67
2022/07/16 13:11:13;;;;;;;1.10;0.80;;;;;;;19.66;50.64;100459.54;2128732;83;29899;-67
2022/07/16 13:14:15;;;;;;;2.37;1.00;;;;;;;19.65;51.65;100460.02;2128648;83;27909;-70
2022/07/16 13:17:16;;;;;;;3.65;0.90;;;;;;;19.64;52.96;100464.24;2127804;83;28617;-73
2022/07/16 13:20:18;;;;;;;2.50;1.10;;;;;;;19.50;52.72;100454.53;2128444;83;31968;-70
2022/07/16 13:23:19;;;;;;;3.40;1.10;;;;;;;19.37;53.84;100451.52;2125555;83;32945;-67
2022/07/16 13:26:24;;;;;;;8.25;1.17;;;;;;;19.28;54.49;100453.63;2128290;83;29340;-67
2022/07/16 13:29:26;;;;;;;1.60;1.15;;;;;;;19.18;54.78;100454.92;2083200;83;27714;-69
2022/07/16 13:32:27;;;;;;;2.05;1.10;;;;;;;19.13;55.61;100453.92;2096036;83;28701;-68
2022/07/16 13:35:29;;;;;;;2.02;0.90;;;;;;;19.04;55.52;100446.56;2132614;83;31191;-70
2022/07/16 13:38:30;;;;;;;2.10;1.40;;;;;;;19.01;55.64;100445.45;2125623;83;33791;-70
2022/07/16 13:41:33;;;;;;;1.80;1.30;;;;;;;19.02;56.42;100449.05;2125700;83;29329;-69
2022/07/16 13:44:34;;;;;;;2.12;1.32;;;;;;;19.06;56.53;100448.66;2125721;83;27650;-66
2022/07/16 13:47:38;;;;;;;2.58;1.42;;;;;;;19.18;56.12;100432.31;2143426;82;28811;-63
2022/07/16 13:50:40;;;;;;;3.02;1.30;;;;;;;19.42;57.15;100432.09;2133718;83;31051;-71
2022/07/16 13:53:42;;;;;;;1.20;1.10;;;;;;;19.65;57.13;100430.13;2104759;84;34109;-74
2022/07/16 13:56:43;;;;;;;2.17;1.10;;;;;;;19.84;57.05;100435.33;2104830;84;30137;-72
2022/07/16 13:59:45;;;;;;;1.62;1.15;;;;;;;19.97;56.63;100433.80;2104922;84;27603;-61
2022/07/16 14:02:47;;;;;;;1.62;1.20;;;;;;;20.05;56.75;100427.19;2104848;84;29837;-72
2022/07/16 14:05:48;;;;;;;6.50;2.33;;;;;;;20.11;56.18;100426.66;2105183;84;31470;-74
2022/07/16 14:08:50;;;;;;;4.87;1.67;;;;;;;20.14;56.24;100430.47;2104200;84;33827;-71
2022/07/16 14:11:51;;;;;;;2.30;1.40;;;;;;;20.24;56.61;100435.08;2104225;84;29333;-65
2022/07/16 14:14:53;;;;;;;4.35;1.62;;;;;;;20.31;55.59;100445.80;2104507;84;28034;-76
2022/07/16 14:17:56;;;;;;;1.37;1.20;;;;;;;20.32;55.65;100448.88;2103643;84;28792;-69
2022/07/16 14:20:58;;;;;;;2.50;1.22;;;;;;;20.38;55.24;100450.19;2105845;84;31082;-75